sensor_id;sensor_type;location;lat;lon;timestamp;temperature;humidity
31263;DHT22;17892;52.080;9.006;2022-10-16T00:01:27;15.00;97.80
31263;DHT22;17892;52.080;9.006;2022-10-16T00:03:55;15.00;97.80
31263;DHT22;17892;52.080;9.006;2022-10-16T00:06:22;14.90;97.80
31263;DHT22;17892;52.080;9.006;2022-10-16T00:08:48;14.90;97.80
31263;DHT22;17892;52.080;9.006;2022-10-16T00:13:51;14.90;98.00
31263;DHT22;17892;52.080;9.006;2022-10-16T00:16:19;14.80;98.00
31263;DHT22;17892;52.080;9.006;2022-10-16T00:18:45;14.80;98.00
31263;DHT22;17892;52.080;9.006;2022-10-16T00:21:19;14.80;98.20
31263;DHT22;17892;52.080;9.006;2022-10-16T00:23:49;14.80;98.60
31263;DHT22;17892;52.080;9.006;2022-10-16T00:26:17;14.80;98.50
31263;DHT22;17892;52.080;9.006;2022-10-16T00:28:46;14.80;98.70
31263;DHT22;17892;52.080;9.006;2022-10-16T00:31:13;14.90;98.90
31263;DHT22;17892;52.080;9.006;2022-10-16T00:33:39;14.90;98.90
31263;DHT22;17892;52.080;9.006;2022-10-16T00:36:07;15.00;99.00
31263;DHT22;17892;52.080;9.006;2022-10-16T00:38:34;15.00;99.10
31263;DHT22;17892;52.080;9.006;2022-10-16T00:41:00;15.10;99.10
31263;DHT22;17892;52.080;9.006;2022-10-16T00:43:47;15.10;99.10
31263;DHT22;17892;52.080;9.006;2022-10-16T00:46:23;15.20;99.10
31263;DHT22;17892;52.080;9.006;2022-10-16T00:49:06;15.30;98.90
31263;DHT22;17892;52.080;9.006;2022-10-16T00:51:45;15.30;98.90
31263;DHT22;17892;52.080;9.006;2022-10-16T00:54:21;15.40;98.90
31263;DHT22;17892;52.080;9.006;2022-10-16T00:56:47;15.40;98.80
31263;DHT22;17892;52.080;9.006;2022-10-16T00:59:23;15.40;98.70
31263;DHT22;17892;52.080;9.006;2022-10-16T01:01:52;15.50;98.80
31263;DHT22;17892;52.080;9.006;2022-10-16T01:04:18;15.50;98.90
31263;DHT22;17892;52.080;9.006;2022-10-16T01:06:59;15.50;98.50
31263;DHT22;17892;52.080;9.006;2022-10-16T01:13:17;15.50;98.40
31263;DHT22;17892;52.080;9.006;2022-10-16T01:18:47;15.50;98.20
31263;DHT22;17892;52.080;9.006;2022-10-16T01:21:27;15.40;98.30
31263;DHT22;17892;52.080;9.006;2022-10-16T01:29:40;15.30;97.90
31263;DHT22;17892;52.080;9.006;2022-10-16T01:32:41;15.20;97.80
31263;DHT22;17892;52.080;9.006;2022-10-16T01:35:36;15.10;98.10
31263;DHT22;17892;52.080;9.006;2022-10-16T01:38:15;15.00;97.90
31263;DHT22;17892;52.080;9.006;2022-10-16T01:40:49;14.90;97.80
31263;DHT22;17892;52.080;9.006;2022-10-16T01:43:24;14.80;97.80
31263;DHT22;17892;52.080;9.006;2022-10-16T01:45:52;14.80;98.00
31263;DHT22;17892;52.080;9.006;2022-10-16T01:48:20;14.70;97.90
31263;DHT22;17892;52.080;9.006;2022-10-16T01:50:54;14.60;97.90
31263;DHT22;17892;52.080;9.006;2022-10-16T01:53:26;14.60;98.10
31263;DHT22;17892;52.080;9.006;2022-10-16T01:55:54;14.50;98.30
31263;DHT22;17892;52.080;9.006;2022-10-16T01:58:22;14.40;98.20
31263;DHT22;17892;52.080;9.006;2022-10-16T02:00:49;14.40;98.40
31263;DHT22;17892;52.080;9.006;2022-10-16T02:03:17;14.40;98.50
31263;DHT22;17892;52.080;9.006;2022-10-16T02:05:55;14.40;98.60
31263;DHT22;17892;52.080;9.006;2022-10-16T02:08:24;14.30;98.80
31263;DHT22;17892;52.080;9.006;2022-10-16T02:10:51;14.30;98.60
31263;DHT22;17892;52.080;9.006;2022-10-16T02:13:25;14.30;98.60
31263;DHT22;17892;52.080;9.006;2022-10-16T02:15:55;14.20;98.90
31263;DHT22;17892;52.080;9.006;2022-10-16T02:18:21;14.20;98.90
31263;DHT22;17892;52.080;9.006;2022-10-16T02:21:07;14.20;99.00
31263;DHT22;17892;52.080;9.006;2022-10-16T02:27:06;14.20;99.40
31263;DHT22;17892;52.080;9.006;2022-10-16T02:29:49;14.20;99.60
31263;DHT22;17892;52.080;9.006;2022-10-16T02:32:21;14.20;99.50
31263;DHT22;17892;52.080;9.006;2022-10-16T02:34:49;14.20;99.60
31263;DHT22;17892;52.080;9.006;2022-10-16T02:37:17;14.20;99.50
31263;DHT22;17892;52.080;9.006;2022-10-16T02:39:44;14.20;99.50
31263;DHT22;17892;52.080;9.006;2022-10-16T02:42:13;14.20;99.40
31263;DHT22;17892;52.080;9.006;2022-10-16T02:44:39;14.20;99.50
31263;DHT22;17892;52.080;9.006;2022-10-16T02:47:05;14.20;99.40
31263;DHT22;17892;52.080;9.006;2022-10-16T02:49:31;14.20;99.40
31263;DHT22;17892;52.080;9.006;2022-10-16T02:51:57;14.10;99.40
31263;DHT22;17892;52.080;9.006;2022-10-16T02:54:23;14.10;99.40
31263;DHT22;17892;52.080;9.006;2022-10-16T02:56:49;14.10;99.40
31263;DHT22;17892;52.080;9.006;2022-10-16T02:59:15;14.10;99.50
31263;DHT22;17892;52.080;9.006;2022-10-16T03:01:41;14.10;99.50
31263;DHT22;17892;52.080;9.006;2022-10-16T03:04:07;14.10;99.60
31263;DHT22;17892;52.080;9.006;2022-10-16T03:06:32;14.10;99.70
31263;DHT22;17892;52.080;9.006;2022-10-16T03:08:58;14.10;99.80
31263;DHT22;17892;52.080;9.006;2022-10-16T03:11:24;14.10;99.90
31263;DHT22;17892;52.080;9.006;2022-10-16T03:13:50;14.10;99.90
31263;DHT22;17892;52.080;9.006;2022-10-16T03:16:15;14.10;99.90
31263;DHT22;17892;52.080;9.006;2022-10-16T03:18:41;14.10;99.90
31263;DHT22;17892;52.080;9.006;2022-10-16T03:21:07;14.10;99.90
31263;DHT22;17892;52.080;9.006;2022-10-16T03:23:32;14.10;99.80
31263;DHT22;17892;52.080;9.006;2022-10-16T03:25:58;14.10;99.80
31263;DHT22;17892;52.080;9.006;2022-10-16T03:28:24;14.10;99.90
31263;DHT22;17892;52.080;9.006;2022-10-16T03:30:50;14.10;99.90
31263;DHT22;17892;52.080;9.006;2022-10-16T03:33:16;14.10;99.90
31263;DHT22;17892;52.080;9.006;2022-10-16T03:35:41;14.10;99.90
31263;DHT22;17892;52.080;9.006;2022-10-16T03:38:07;14.10;99.90
31263;DHT22;17892;52.080;9.006;2022-10-16T03:40:33;14.10;99.90
31263;DHT22;17892;52.080;9.006;2022-10-16T03:42:59;14.20;99.90
31263;DHT22;17892;52.080;9.006;2022-10-16T03:45:25;14.20;99.90
31263;DHT22;17892;52.080;9.006;2022-10-16T03:47:51;14.20;99.90
31263;DHT22;17892;52.080;9.006;2022-10-16T03:50:17;14.30;99.90
31263;DHT22;17892;52.080;9.006;2022-10-16T03:52:42;14.40;99.90
31263;DHT22;17892;52.080;9.006;2022-10-16T03:55:08;14.40;99.90
31263;DHT22;17892;52.080;9.006;2022-10-16T03:57:34;14.50;99.90
31263;DHT22;17892;52.080;9.006;2022-10-16T04:03:41;14.60;99.90
31263;DHT22;17892;52.080;9.006;2022-10-16T04:06:06;14.60;99.90
31263;DHT22;17892;52.080;9.006;2022-10-16T04:08:32;14.60;99.90
31263;DHT22;17892;52.080;9.006;2022-10-16T04:11:00;14.60;99.90
31263;DHT22;17892;52.080;9.006;2022-10-16T04:13:26;14.60;99.90
31263;DHT22;17892;52.080;9.006;2022-10-16T04:15:52;14.60;99.90
31263;DHT22;17892;52.080;9.006;2022-10-16T04:18:18;14.60;99.90
31263;DHT22;17892;52.080;9.006;2022-10-16T04:20:43;14.60;99.90
31263;DHT22;17892;52.080;9.006;2022-10-16T04:23:09;14.60;99.90
31263;DHT22;17892;52.080;9.006;2022-10-16T04:25:35;14.70;99.90
31263;DHT22;17892;52.080;9.006;2022-10-16T04:28:00;14.70;99.90
31263;DHT22;17892;52.080;9.006;2022-10-16T04:30:26;14.60;99.90
31263;DHT22;17892;52.080;9.006;2022-10-16T04:32:52;14.70;99.90
31263;DHT22;17892;52.080;9.006;2022-10-16T04:35:19;14.70;99.90
31263;DHT22;17892;52.080;9.006;2022-10-16T04:37:46;14.60;99.90
31263;DHT22;17892;52.080;9.006;2022-10-16T04:40:13;14.60;99.90
31263;DHT22;17892;52.080;9.006;2022-10-16T04:42:39;14.60;99.90
31263;DHT22;17892;52.080;9.006;2022-10-16T04:45:05;14.60;99.90
31263;DHT22;17892;52.080;9.006;2022-10-16T04:47:31;14.50;99.90
31263;DHT22;17892;52.080;9.006;2022-10-16T04:49:57;14.50;99.90
31263;DHT22;17892;52.080;9.006;2022-10-16T04:52:24;14.50;99.90
31263;DHT22;17892;52.080;9.006;2022-10-16T04:54:50;14.50;99.90
31263;DHT22;17892;52.080;9.006;2022-10-16T04:57:16;14.40;99.90
31263;DHT22;17892;52.080;9.006;2022-10-16T04:59:42;14.40;99.90
31263;DHT22;17892;52.080;9.006;2022-10-16T05:02:08;14.40;99.90
31263;DHT22;17892;52.080;9.006;2022-10-16T05:04:34;14.40;99.90
31263;DHT22;17892;52.080;9.006;2022-10-16T05:06:59;14.50;99.90
31263;DHT22;17892;52.080;9.006;2022-10-16T05:09:25;14.40;99.90
31263;DHT22;17892;52.080;9.006;2022-10-16T05:11:51;14.50;99.90
31263;DHT22;17892;52.080;9.006;2022-10-16T05:14:17;14.50;99.90
31263;DHT22;17892;52.080;9.006;2022-10-16T05:16:43;14.50;99.90
31263;DHT22;17892;52.080;9.006;2022-10-16T05:19:08;14.60;99.90
31263;DHT22;17892;52.080;9.006;2022-10-16T05:21:34;14.60;99.90
31263;DHT22;17892;52.080;9.006;2022-10-16T05:24:00;14.60;99.90
31263;DHT22;17892;52.080;9.006;2022-10-16T05:26:25;14.70;99.90
31263;DHT22;17892;52.080;9.006;2022-10-16T05:28:51;14.70;99.90
31263;DHT22;17892;52.080;9.006;2022-10-16T05:31:17;14.70;99.90
31263;DHT22;17892;52.080;9.006;2022-10-16T05:33:43;14.70;99.90
31263;DHT22;17892;52.080;9.006;2022-10-16T05:36:09;14.80;99.90
31263;DHT22;17892;52.080;9.006;2022-10-16T05:38:36;14.80;99.90
31263;DHT22;17892;52.080;9.006;2022-10-16T05:41:04;14.90;99.90
31263;DHT22;17892;52.080;9.006;2022-10-16T05:43:30;14.90;99.90
31263;DHT22;17892;52.080;9.006;2022-10-16T05:46:03;14.90;99.90
31263;DHT22;17892;52.080;9.006;2022-10-16T05:48:30;14.90;99.90
31263;DHT22;17892;52.080;9.006;2022-10-16T05:51:00;15.00;99.90
31263;DHT22;17892;52.080;9.006;2022-10-16T05:53:29;15.00;99.90
31263;DHT22;17892;52.080;9.006;2022-10-16T05:55:57;15.10;99.90
31263;DHT22;17892;52.080;9.006;2022-10-16T05:58:23;15.10;99.90
31263;DHT22;17892;52.080;9.006;2022-10-16T06:00:59;15.10;99.90
31263;DHT22;17892;52.080;9.006;2022-10-16T06:03:26;15.20;99.90
31263;DHT22;17892;52.080;9.006;2022-10-16T06:05:52;15.20;99.90
31263;DHT22;17892;52.080;9.006;2022-10-16T06:08:20;15.20;99.90
31263;DHT22;17892;52.080;9.006;2022-10-16T06:10:47;15.30;99.90
31263;DHT22;17892;52.080;9.006;2022-10-16T06:13:14;15.30;99.90
31263;DHT22;17892;52.080;9.006;2022-10-16T06:15:41;15.30;99.90
31263;DHT22;17892;52.080;9.006;2022-10-16T06:18:08;15.30;99.90
31263;DHT22;17892;52.080;9.006;2022-10-16T06:20:35;15.40;99.90
31263;DHT22;17892;52.080;9.006;2022-10-16T06:23:02;15.40;99.90
31263;DHT22;17892;52.080;9.006;2022-10-16T06:25:32;15.40;99.80
31263;DHT22;17892;52.080;9.006;2022-10-16T06:27:58;15.40;99.70
31263;DHT22;17892;52.080;9.006;2022-10-16T06:30:23;15.40;99.70
31263;DHT22;17892;52.080;9.006;2022-10-16T06:32:49;15.40;99.60
31263;DHT22;17892;52.080;9.006;2022-10-16T06:35:15;15.40;99.50
31263;DHT22;17892;52.080;9.006;2022-10-16T06:37:40;15.40;99.50
31263;DHT22;17892;52.080;9.006;2022-10-16T06:40:06;15.40;99.50
31263;DHT22;17892;52.080;9.006;2022-10-16T06:42:32;15.40;99.50
31263;DHT22;17892;52.080;9.006;2022-10-16T06:44:58;15.40;99.50
31263;DHT22;17892;52.080;9.006;2022-10-16T06:47:24;15.40;99.60
31263;DHT22;17892;52.080;9.006;2022-10-16T06:49:49;15.40;99.60
31263;DHT22;17892;52.080;9.006;2022-10-16T06:52:15;15.40;99.70
31263;DHT22;17892;52.080;9.006;2022-10-16T06:54:41;15.40;99.80
31263;DHT22;17892;52.080;9.006;2022-10-16T06:57:06;15.50;99.90
31263;DHT22;17892;52.080;9.006;2022-10-16T06:59:32;15.60;99.90
31263;DHT22;17892;52.080;9.006;2022-10-16T07:01:58;15.60;99.70
31263;DHT22;17892;52.080;9.006;2022-10-16T07:04:24;15.60;99.70
31263;DHT22;17892;52.080;9.006;2022-10-16T07:06:49;15.70;99.80
31263;DHT22;17892;52.080;9.006;2022-10-16T07:09:17;15.70;99.70
31263;DHT22;17892;52.080;9.006;2022-10-16T07:11:43;15.80;99.70
31263;DHT22;17892;52.080;9.006;2022-10-16T07:14:16;15.80;99.60
31263;DHT22;17892;52.080;9.006;2022-10-16T07:16:43;15.90;99.60
31263;DHT22;17892;52.080;9.006;2022-10-16T07:19:09;15.90;99.60
31263;DHT22;17892;52.080;9.006;2022-10-16T07:21:37;16.00;99.60
31263;DHT22;17892;52.080;9.006;2022-10-16T07:24:05;16.10;99.90
31263;DHT22;17892;52.080;9.006;2022-10-16T07:26:34;16.20;99.90
31263;DHT22;17892;52.080;9.006;2022-10-16T07:29:00;16.30;99.90
31263;DHT22;17892;52.080;9.006;2022-10-16T07:31:27;16.50;99.90
31263;DHT22;17892;52.080;9.006;2022-10-16T07:33:53;16.60;99.80
31263;DHT22;17892;52.080;9.006;2022-10-16T07:36:20;16.70;99.70
31263;DHT22;17892;52.080;9.006;2022-10-16T07:38:46;16.80;99.50
31263;DHT22;17892;52.080;9.006;2022-10-16T07:41:18;16.80;99.30
31263;DHT22;17892;52.080;9.006;2022-10-16T07:43:52;16.90;99.00
31263;DHT22;17892;52.080;9.006;2022-10-16T07:46:19;16.90;98.90
31263;DHT22;17892;52.080;9.006;2022-10-16T07:48:46;17.00;99.20
31263;DHT22;17892;52.080;9.006;2022-10-16T07:51:17;17.00;99.20
31263;DHT22;17892;52.080;9.006;2022-10-16T07:53:44;17.10;99.20
31263;DHT22;17892;52.080;9.006;2022-10-16T07:56:11;17.20;99.30
31263;DHT22;17892;52.080;9.006;2022-10-16T07:58:37;17.20;99.50
31263;DHT22;17892;52.080;9.006;2022-10-16T08:01:04;17.40;99.60
31263;DHT22;17892;52.080;9.006;2022-10-16T08:03:34;17.50;99.60
31263;DHT22;17892;52.080;9.006;2022-10-16T08:06:01;17.60;99.50
31263;DHT22;17892;52.080;9.006;2022-10-16T08:08:28;17.70;99.00
31263;DHT22;17892;52.080;9.006;2022-10-16T08:10:54;17.80;98.70
31263;DHT22;17892;52.080;9.006;2022-10-16T08:13:20;17.90;98.50
31263;DHT22;17892;52.080;9.006;2022-10-16T08:15:46;18.00;98.40
31263;DHT22;17892;52.080;9.006;2022-10-16T08:18:13;18.00;98.30
31263;DHT22;17892;52.080;9.006;2022-10-16T08:20:41;18.00;98.10
31263;DHT22;17892;52.080;9.006;2022-10-16T08:23:11;18.00;98.10
31263;DHT22;17892;52.080;9.006;2022-10-16T08:25:37;18.10;98.30
31263;DHT22;17892;52.080;9.006;2022-10-16T08:28:04;18.10;98.50
31263;DHT22;17892;52.080;9.006;2022-10-16T08:30:31;18.20;98.30
31263;DHT22;17892;52.080;9.006;2022-10-16T08:32:57;18.30;98.00
31263;DHT22;17892;52.080;9.006;2022-10-16T08:35:23;18.40;98.60
31263;DHT22;17892;52.080;9.006;2022-10-16T08:37:49;18.50;99.00
31263;DHT22;17892;52.080;9.006;2022-10-16T08:40:20;18.80;99.90
31263;DHT22;17892;52.080;9.006;2022-10-16T08:48:47;20.00;98.80
31263;DHT22;17892;52.080;9.006;2022-10-16T08:51:31;20.60;99.40
31263;DHT22;17892;52.080;9.006;2022-10-16T08:54:01;21.00;98.80
31263;DHT22;17892;52.080;9.006;2022-10-16T08:56:28;21.30;99.20
31263;DHT22;17892;52.080;9.006;2022-10-16T08:58:54;21.70;99.40
31263;DHT22;17892;52.080;9.006;2022-10-16T09:01:22;22.00;98.60
31263;DHT22;17892;52.080;9.006;2022-10-16T09:04:31;22.20;96.80
31263;DHT22;17892;52.080;9.006;2022-10-16T09:10:13;22.60;93.00
31263;DHT22;17892;52.080;9.006;2022-10-16T09:16:32;22.40;93.80
31263;DHT22;17892;52.080;9.006;2022-10-16T09:19:21;22.40;93.90
31263;DHT22;17892;52.080;9.006;2022-10-16T09:21:50;22.30;93.50
31263;DHT22;17892;52.080;9.006;2022-10-16T09:24:19;22.30;94.20
31263;DHT22;17892;52.080;9.006;2022-10-16T09:26:47;22.30;93.50
31263;DHT22;17892;52.080;9.006;2022-10-16T09:29:14;22.30;93.80
31263;DHT22;17892;52.080;9.006;2022-10-16T09:31:51;22.30;93.00
31263;DHT22;17892;52.080;9.006;2022-10-16T09:34:32;22.30;93.00
31263;DHT22;17892;52.080;9.006;2022-10-16T09:37:04;22.20;92.20
31263;DHT22;17892;52.080;9.006;2022-10-16T09:39:52;22.10;91.50
31263;DHT22;17892;52.080;9.006;2022-10-16T09:42:20;22.10;90.90
31263;DHT22;17892;52.080;9.006;2022-10-16T09:44:49;22.00;92.00
31263;DHT22;17892;52.080;9.006;2022-10-16T09:47:23;22.00;91.70
31263;DHT22;17892;52.080;9.006;2022-10-16T09:52:28;21.90;91.60
31263;DHT22;17892;52.080;9.006;2022-10-16T09:54:55;21.80;90.40
31263;DHT22;17892;52.080;9.006;2022-10-16T09:57:22;21.70;90.70
31263;DHT22;17892;52.080;9.006;2022-10-16T09:59:50;21.70;91.30
31263;DHT22;17892;52.080;9.006;2022-10-16T10:02:23;21.70;91.70
31263;DHT22;17892;52.080;9.006;2022-10-16T10:04:55;21.80;91.40
31263;DHT22;17892;52.080;9.006;2022-10-16T10:07:35;21.80;91.40
31263;DHT22;17892;52.080;9.006;2022-10-16T10:10:18;21.90;86.40
31263;DHT22;17892;52.080;9.006;2022-10-16T10:12:46;21.90;90.70
31263;DHT22;17892;52.080;9.006;2022-10-16T10:15:12;21.90;90.30
31263;DHT22;17892;52.080;9.006;2022-10-16T10:17:56;21.80;90.10
31263;DHT22;17892;52.080;9.006;2022-10-16T10:20:34;21.80;88.50
31263;DHT22;17892;52.080;9.006;2022-10-16T10:23:24;21.60;88.40
31263;DHT22;17892;52.080;9.006;2022-10-16T10:26:06;21.40;87.70
31263;DHT22;17892;52.080;9.006;2022-10-16T10:31:33;21.10;90.00
31263;DHT22;17892;52.080;9.006;2022-10-16T10:37:00;21.50;92.40
31263;DHT22;17892;52.080;9.006;2022-10-16T10:40:00;21.90;93.10
31263;DHT22;17892;52.080;9.006;2022-10-16T10:42:42;22.50;91.50
31263;DHT22;17892;52.080;9.006;2022-10-16T10:45:19;23.10;92.30
31263;DHT22;17892;52.080;9.006;2022-10-16T10:48:23;23.60;92.40
31263;DHT22;17892;52.080;9.006;2022-10-16T10:50:59;24.10;90.10
31263;DHT22;17892;52.080;9.006;2022-10-16T10:59:02;24.40;86.00
31263;DHT22;17892;52.080;9.006;2022-10-16T11:13:53;25.10;83.50
31263;DHT22;17892;52.080;9.006;2022-10-16T11:16:34;25.30;81.70
31263;DHT22;17892;52.080;9.006;2022-10-16T11:22:22;25.80;81.70
31263;DHT22;17892;52.080;9.006;2022-10-16T11:27:57;26.20;74.90
31263;DHT22;17892;52.080;9.006;2022-10-16T11:31:07;26.30;78.00
31263;DHT22;17892;52.080;9.006;2022-10-16T11:33:57;26.40;77.20
31263;DHT22;17892;52.080;9.006;2022-10-16T11:36:45;26.50;74.20
31263;DHT22;17892;52.080;9.006;2022-10-16T11:39:32;26.50;77.70
31263;DHT22;17892;52.080;9.006;2022-10-16T11:47:45;26.40;68.50
31263;DHT22;17892;52.080;9.006;2022-10-16T11:55:41;25.80;68.70
31263;DHT22;17892;52.080;9.006;2022-10-16T12:01:28;25.20;68.50
31263;DHT22;17892;52.080;9.006;2022-10-16T12:04:20;24.80;67.20
31263;DHT22;17892;52.080;9.006;2022-10-16T12:07:07;24.30;67.10
31263;DHT22;17892;52.080;9.006;2022-10-16T12:09:44;23.80;68.50
31263;DHT22;17892;52.080;9.006;2022-10-16T12:12:28;23.40;68.50
31263;DHT22;17892;52.080;9.006;2022-10-16T12:15:26;23.10;68.50
31263;DHT22;17892;52.080;9.006;2022-10-16T12:17:53;22.80;71.10
31263;DHT22;17892;52.080;9.006;2022-10-16T12:20:25;22.70;72.40
31263;DHT22;17892;52.080;9.006;2022-10-16T12:22:58;22.60;71.60
31263;DHT22;17892;52.080;9.006;2022-10-16T12:25:40;22.40;70.80
31263;DHT22;17892;52.080;9.006;2022-10-16T12:30:41;22.00;71.40
31263;DHT22;17892;52.080;9.006;2022-10-16T12:35:53;21.50;71.60
31263;DHT22;17892;52.080;9.006;2022-10-16T12:38:21;21.30;72.20
31263;DHT22;17892;52.080;9.006;2022-10-16T12:41:01;21.10;72.80
31263;DHT22;17892;52.080;9.006;2022-10-16T12:43:36;20.90;73.30
31263;DHT22;17892;52.080;9.006;2022-10-16T12:48:34;20.70;74.70
31263;DHT22;17892;52.080;9.006;2022-10-16T12:56:50;20.80;76.00
31263;DHT22;17892;52.080;9.006;2022-10-16T13:02:32;20.80;75.80
31263;DHT22;17892;52.080;9.006;2022-10-16T13:08:44;20.70;76.30
31263;DHT22;17892;52.080;9.006;2022-10-16T13:17:48;20.40;76.90
31263;DHT22;17892;52.080;9.006;2022-10-16T13:23:30;20.30;77.10
31263;DHT22;17892;52.080;9.006;2022-10-16T13:26:05;20.20;77.50
31263;DHT22;17892;52.080;9.006;2022-10-16T13:28:35;20.20;77.60
31263;DHT22;17892;52.080;9.006;2022-10-16T13:31:05;20.20;77.90
31263;DHT22;17892;52.080;9.006;2022-10-16T13:33:37;20.20;78.40
31263;DHT22;17892;52.080;9.006;2022-10-16T13:36:05;20.30;78.80
31263;DHT22;17892;52.080;9.006;2022-10-16T13:38:34;20.30;79.00
31263;DHT22;17892;52.080;9.006;2022-10-16T13:41:16;20.40;78.80
31263;DHT22;17892;52.080;9.006;2022-10-16T13:43:53;20.50;78.70
31263;DHT22;17892;52.080;9.006;2022-10-16T13:46:23;20.60;78.30
31263;DHT22;17892;52.080;9.006;2022-10-16T13:48:57;20.70;78.20
31263;DHT22;17892;52.080;9.006;2022-10-16T13:51:24;20.80;77.40
31263;DHT22;17892;52.080;9.006;2022-10-16T13:53:51;20.80;77.80
31263;DHT22;17892;52.080;9.006;2022-10-16T13:56:20;20.80;77.80
31263;DHT22;17892;52.080;9.006;2022-10-16T13:58:58;20.70;77.80
31263;DHT22;17892;52.080;9.006;2022-10-16T14:01:48;20.80;77.80
31263;DHT22;17892;52.080;9.006;2022-10-16T14:04:15;20.80;78.20
31263;DHT22;17892;52.080;9.006;2022-10-16T14:06:43;20.80;78.30
31263;DHT22;17892;52.080;9.006;2022-10-16T14:09:26;20.80;78.40
31263;DHT22;17892;52.080;9.006;2022-10-16T14:12:06;20.80;78.60
31263;DHT22;17892;52.080;9.006;2022-10-16T14:14:40;20.90;78.10
31263;DHT22;17892;52.080;9.006;2022-10-16T14:17:14;20.90;78.30
31263;DHT22;17892;52.080;9.006;2022-10-16T14:19:46;20.90;78.10
31263;DHT22;17892;52.080;9.006;2022-10-16T14:22:34;20.90;78.20
31263;DHT22;17892;52.080;9.006;2022-10-16T14:30:36;20.90;78.70
31263;DHT22;17892;52.080;9.006;2022-10-16T14:33:18;20.80;78.50
31263;DHT22;17892;52.080;9.006;2022-10-16T14:38:48;20.90;78.70
31263;DHT22;17892;52.080;9.006;2022-10-16T14:41:43;20.80;78.90
31263;DHT22;17892;52.080;9.006;2022-10-16T14:44:11;20.90;79.30
31263;DHT22;17892;52.080;9.006;2022-10-16T14:46:42;20.90;79.00
31263;DHT22;17892;52.080;9.006;2022-10-16T14:51:38;20.90;78.20
31263;DHT22;17892;52.080;9.006;2022-10-16T14:54:10;20.80;78.10
31263;DHT22;17892;52.080;9.006;2022-10-16T14:56:50;20.80;78.50
31263;DHT22;17892;52.080;9.006;2022-10-16T15:01:55;20.70;78.10
31263;DHT22;17892;52.080;9.006;2022-10-16T15:04:21;20.70;78.20
31263;DHT22;17892;52.080;9.006;2022-10-16T15:06:47;20.60;78.00
31263;DHT22;17892;52.080;9.006;2022-10-16T15:09:13;20.50;78.00
31263;DHT22;17892;52.080;9.006;2022-10-16T15:11:39;20.40;78.80
31263;DHT22;17892;52.080;9.006;2022-10-16T15:14:05;20.40;80.00
31263;DHT22;17892;52.080;9.006;2022-10-16T15:16:33;20.60;81.30
31263;DHT22;17892;52.080;9.006;2022-10-16T15:18:58;20.70;81.50
31263;DHT22;17892;52.080;9.006;2022-10-16T15:21:27;20.80;81.50
31263;DHT22;17892;52.080;9.006;2022-10-16T15:23:55;21.00;81.50
31263;DHT22;17892;52.080;9.006;2022-10-16T15:26:23;21.20;81.30
31263;DHT22;17892;52.080;9.006;2022-10-16T15:28:50;21.30;81.40
31263;DHT22;17892;52.080;9.006;2022-10-16T15:31:15;21.50;81.70
31263;DHT22;17892;52.080;9.006;2022-10-16T15:33:42;21.70;81.30
31263;DHT22;17892;52.080;9.006;2022-10-16T15:36:08;21.90;80.60
31263;DHT22;17892;52.080;9.006;2022-10-16T15:38:34;22.00;80.50
31263;DHT22;17892;52.080;9.006;2022-10-16T15:41:00;22.10;80.30
31263;DHT22;17892;52.080;9.006;2022-10-16T15:43:26;22.30;80.50
31263;DHT22;17892;52.080;9.006;2022-10-16T15:46:04;22.40;80.40
31263;DHT22;17892;52.080;9.006;2022-10-16T15:48:32;22.50;78.70
31263;DHT22;17892;52.080;9.006;2022-10-16T15:50:59;22.50;78.30
31263;DHT22;17892;52.080;9.006;2022-10-16T15:53:25;22.40;77.30
31263;DHT22;17892;52.080;9.006;2022-10-16T15:55:51;22.30;76.70
31263;DHT22;17892;52.080;9.006;2022-10-16T15:58:17;22.00;76.00
31263;DHT22;17892;52.080;9.006;2022-10-16T16:00:43;21.80;75.90
31263;DHT22;17892;52.080;9.006;2022-10-16T16:03:09;21.50;75.80
31263;DHT22;17892;52.080;9.006;2022-10-16T16:05:38;21.20;75.80
31263;DHT22;17892;52.080;9.006;2022-10-16T16:08:04;20.80;76.30
31263;DHT22;17892;52.080;9.006;2022-10-16T16:10:30;20.50;76.20
31263;DHT22;17892;52.080;9.006;2022-10-16T16:12:56;20.20;76.50
31263;DHT22;17892;52.080;9.006;2022-10-16T16:15:22;19.90;77.00
31263;DHT22;17892;52.080;9.006;2022-10-16T16:17:48;19.50;77.50
31263;DHT22;17892;52.080;9.006;2022-10-16T16:20:14;19.30;78.00
31263;DHT22;17892;52.080;9.006;2022-10-16T16:22:40;19.00;78.40
31263;DHT22;17892;52.080;9.006;2022-10-16T16:25:06;18.70;78.70
31263;DHT22;17892;52.080;9.006;2022-10-16T16:27:32;18.50;79.30
31263;DHT22;17892;52.080;9.006;2022-10-16T16:30:00;18.20;79.70
31263;DHT22;17892;52.080;9.006;2022-10-16T16:32:28;18.00;80.40
31263;DHT22;17892;52.080;9.006;2022-10-16T16:34:54;17.80;81.00
31263;DHT22;17892;52.080;9.006;2022-10-16T16:37:20;17.70;81.70
31263;DHT22;17892;52.080;9.006;2022-10-16T16:39:46;17.50;82.30
31263;DHT22;17892;52.080;9.006;2022-10-16T16:42:12;17.40;83.60
31263;DHT22;17892;52.080;9.006;2022-10-16T16:44:38;17.20;83.30
31263;DHT22;17892;52.080;9.006;2022-10-16T16:47:04;17.10;83.80
31263;DHT22;17892;52.080;9.006;2022-10-16T16:49:31;17.00;84.30
31263;DHT22;17892;52.080;9.006;2022-10-16T16:51:57;16.80;84.40
31263;DHT22;17892;52.080;9.006;2022-10-16T16:54:23;16.70;84.80
31263;DHT22;17892;52.080;9.006;2022-10-16T16:56:49;16.60;85.30
31263;DHT22;17892;52.080;9.006;2022-10-16T16:59:19;16.50;86.10
31263;DHT22;17892;52.080;9.006;2022-10-16T17:01:46;16.40;87.20
31263;DHT22;17892;52.080;9.006;2022-10-16T17:04:12;16.30;86.90
31263;DHT22;17892;52.080;9.006;2022-10-16T17:06:39;16.30;87.40
31263;DHT22;17892;52.080;9.006;2022-10-16T17:09:06;16.30;87.90
31263;DHT22;17892;52.080;9.006;2022-10-16T17:11:33;16.20;88.40
31263;DHT22;17892;52.080;9.006;2022-10-16T17:13:59;16.20;88.70
31263;DHT22;17892;52.080;9.006;2022-10-16T17:16:37;16.10;88.90
31263;DHT22;17892;52.080;9.006;2022-10-16T17:19:07;16.10;90.30
31263;DHT22;17892;52.080;9.006;2022-10-16T17:21:35;16.10;90.20
31263;DHT22;17892;52.080;9.006;2022-10-16T17:24:02;16.10;90.10
31263;DHT22;17892;52.080;9.006;2022-10-16T17:26:29;16.10;90.20
31263;DHT22;17892;52.080;9.006;2022-10-16T17:28:58;16.10;90.40
31263;DHT22;17892;52.080;9.006;2022-10-16T17:31:27;16.10;90.60
31263;DHT22;17892;52.080;9.006;2022-10-16T17:33:55;16.10;91.10
31263;DHT22;17892;52.080;9.006;2022-10-16T17:36:22;16.10;90.70
31263;DHT22;17892;52.080;9.006;2022-10-16T17:38:48;16.10;90.80
31263;DHT22;17892;52.080;9.006;2022-10-16T17:41:20;16.10;90.90
31263;DHT22;17892;52.080;9.006;2022-10-16T17:43:47;16.10;91.30
31263;DHT22;17892;52.080;9.006;2022-10-16T17:46:16;16.10;91.80
31263;DHT22;17892;52.080;9.006;2022-10-16T17:48:48;16.10;91.00
31263;DHT22;17892;52.080;9.006;2022-10-16T17:51:17;16.10;91.40
31263;DHT22;17892;52.080;9.006;2022-10-16T17:53:47;16.10;91.30